createdAt,value
2018-04-25T00:00:36.204Z,53.53
2018-04-25T00:03:02.356Z,58.10
2018-04-25T00:05:28.514Z,58.00
2018-04-25T00:07:54.683Z,58.13
2018-04-25T00:10:20.911Z,52.57
2018-04-25T00:12:47.026Z,50.00
2018-04-25T00:15:13.103Z,52.30
2018-04-25T00:17:39.283Z,61.90
2018-04-25T00:20:06.244Z,60.03
2018-04-25T00:22:32.347Z,54.63
2018-04-25T00:24:58.440Z,53.27
2018-04-25T00:27:24.584Z,54.20
2018-04-25T00:29:50.670Z,47.63
2018-04-25T00:32:16.827Z,50.60
2018-04-25T00:34:43.795Z,49.23
2018-04-25T00:37:10.723Z,50.90
2018-04-25T00:39:36.896Z,56.33
2018-04-25T00:42:03.002Z,56.53
2018-04-25T00:44:29.434Z,55.90
2018-04-25T00:46:56.207Z,57.90
2018-04-25T00:49:23.105Z,56.50
2018-04-25T00:51:49.325Z,74.93
2018-04-25T00:54:15.436Z,72.20
2018-04-25T00:56:41.575Z,63.93
2018-04-25T00:59:07.660Z,56.40
2018-04-25T01:01:33.896Z,49.23
2018-04-25T01:04:00.119Z,44.37
2018-04-25T01:06:27.023Z,36.27
2018-04-25T01:08:53.124Z,40.17
2018-04-25T01:11:19.304Z,34.27
2018-04-25T01:13:45.398Z,37.57
2018-04-25T01:16:11.474Z,33.73
2018-04-25T01:18:37.644Z,34.17
2018-04-25T01:21:03.765Z,37.03
2018-04-25T01:23:29.915Z,37.33
2018-04-25T01:26:03.079Z,32.73
2018-04-25T01:28:29.167Z,36.03
2018-04-25T01:30:59.107Z,36.20
2018-04-25T01:33:25.416Z,36.17
2018-04-25T01:35:57.414Z,33.70
2018-04-25T01:38:26.262Z,37.90
2018-04-25T01:40:52.393Z,35.10
2018-04-25T01:43:19.468Z,37.97
2018-04-25T01:45:49.437Z,34.77
2018-04-25T01:48:27.644Z,34.50
2018-04-25T01:50:57.525Z,40.20
2018-04-25T01:53:35.957Z,33.10
2018-04-25T01:56:14.329Z,37.50
2018-04-25T01:58:52.834Z,35.00
2018-04-25T02:01:18.866Z,40.43
2018-04-25T02:03:53.128Z,35.87
2018-04-25T02:06:19.250Z,36.90
2018-04-25T02:08:45.368Z,37.10
2018-04-25T02:11:11.465Z,35.97
2018-04-25T02:13:37.579Z,42.00
2018-04-25T02:16:03.699Z,40.20
2018-04-25T02:18:33.825Z,38.33
2018-04-25T02:20:59.940Z,33.17
2018-04-25T02:23:26.072Z,33.87
2018-04-25T02:25:54.520Z,31.50
2018-04-25T02:28:21.659Z,36.47
2018-04-25T02:30:47.785Z,34.00
2018-04-25T02:33:15.094Z,36.13
2018-04-25T02:35:42.020Z,33.43
2018-04-25T02:38:08.125Z,33.03
2018-04-25T02:40:34.231Z,32.40
2018-04-25T02:43:01.117Z,36.20
2018-04-25T02:45:27.270Z,32.97
2018-04-25T02:47:53.420Z,31.30
2018-04-25T02:50:19.527Z,33.33
2018-04-25T02:52:45.635Z,34.53
2018-04-25T02:55:12.446Z,33.87
2018-04-25T02:57:38.575Z,35.90
2018-04-25T03:00:04.723Z,36.30
2018-04-25T03:02:30.969Z,32.73
2018-04-25T03:04:57.068Z,30.97
2018-04-25T03:07:23.164Z,34.13
2018-04-25T03:09:51.887Z,35.97
2018-04-25T03:12:17.995Z,31.27
2018-04-25T03:14:45.119Z,35.00
2018-04-25T03:17:11.376Z,32.87
2018-04-25T03:19:38.433Z,28.90
2018-04-25T03:22:04.572Z,30.77
2018-04-25T03:24:30.674Z,30.63
2018-04-25T03:26:56.880Z,26.80
2018-04-25T03:29:26.242Z,27.93
2018-04-25T03:31:52.327Z,29.33
2018-04-25T03:34:18.497Z,28.30
2018-04-25T03:36:45.363Z,28.60
2018-04-25T03:39:11.445Z,26.83
2018-04-25T03:41:37.548Z,29.10
2018-04-25T03:44:03.663Z,30.77
2018-04-25T03:46:30.519Z,24.57
2018-04-25T03:48:56.622Z,32.40
2018-04-25T03:51:22.746Z,29.50
2018-04-25T03:53:48.839Z,29.53
2018-04-25T03:56:15.685Z,30.13
2018-04-25T03:58:42.547Z,31.20
2018-04-25T04:01:09.470Z,26.07
2018-04-25T04:03:35.562Z,28.23
2018-04-25T04:06:01.666Z,28.23
2018-04-25T04:08:28.516Z,29.63
2018-04-25T04:10:54.612Z,33.43
2018-04-25T04:13:20.743Z,27.83
2018-04-25T04:15:46.809Z,28.63
2018-04-25T04:18:12.870Z,31.07
2018-04-25T04:20:38.962Z,30.77
2018-04-25T04:23:05.064Z,29.93
2018-04-25T04:25:31.159Z,32.77
2018-04-25T04:27:57.291Z,35.73
2018-04-25T04:30:23.387Z,35.27
2018-04-25T04:32:49.559Z,34.03
2018-04-25T04:35:15.719Z,31.43
2018-04-25T04:37:41.813Z,33.23
2018-04-25T04:40:07.891Z,30.57
2018-04-25T04:42:34.013Z,29.40
2018-04-25T04:45:00.105Z,30.90
2018-04-25T04:47:26.197Z,30.70
2018-04-25T04:49:52.350Z,27.37
2018-04-25T04:52:18.701Z,26.13
2018-04-25T04:54:44.875Z,33.63
2018-04-25T04:57:11.016Z,27.67
2018-04-25T04:59:37.140Z,27.23
2018-04-25T05:02:03.240Z,28.70
2018-04-25T05:04:29.345Z,26.93
2018-04-25T05:06:55.423Z,26.50
2018-04-25T05:09:22.596Z,26.00
2018-04-25T05:11:48.707Z,29.40
2018-04-25T05:14:14.783Z,30.50
2018-04-25T05:16:40.892Z,24.50
2018-04-25T05:19:07.080Z,30.13
2018-04-25T05:21:33.167Z,26.03
2018-04-25T05:23:59.261Z,33.23
2018-04-25T05:26:25.402Z,25.93
2018-04-25T05:28:51.559Z,23.57
2018-04-25T05:31:17.760Z,23.23
2018-04-25T05:33:43.874Z,27.83
2018-04-25T05:36:10.000Z,23.50
2018-04-25T05:38:36.348Z,25.33
2018-04-25T05:41:02.737Z,21.77
2018-04-25T05:43:28.903Z,24.00
2018-04-25T05:45:55.104Z,23.00
2018-04-25T05:48:21.246Z,27.17
2018-04-25T05:50:47.351Z,31.80
2018-04-25T05:53:13.423Z,24.77
2018-04-25T05:55:39.604Z,28.03
2018-04-25T05:58:05.721Z,27.50
2018-04-25T06:00:32.188Z,30.83
2018-04-25T06:02:58.385Z,28.10
2018-04-25T06:05:24.604Z,21.77
2018-04-25T06:07:51.440Z,25.57
2018-04-25T06:10:17.653Z,30.70
2018-04-25T06:12:43.775Z,26.17
2018-04-25T06:15:10.084Z,22.73
2018-04-25T06:17:36.947Z,25.10
2018-04-25T06:20:03.825Z,20.63
2018-04-25T06:22:29.920Z,21.73
2018-04-25T06:24:56.915Z,23.10
2018-04-25T06:27:23.028Z,24.63
2018-04-25T06:29:49.873Z,29.00
2018-04-25T06:32:16.123Z,23.00
2018-04-25T06:34:43.004Z,24.97
2018-04-25T06:37:09.110Z,26.37
2018-04-25T06:39:35.302Z,19.17
2018-04-25T06:42:01.447Z,16.87
2018-04-25T06:44:27.554Z,20.43
2018-04-25T06:46:53.673Z,22.07
2018-04-25T06:49:19.786Z,20.97
2018-04-25T06:51:45.898Z,18.23
2018-04-25T06:54:11.990Z,23.07
2018-04-25T06:56:40.496Z,16.50
2018-04-25T06:59:06.705Z,18.20
2018-04-25T07:01:32.823Z,16.50
2018-04-25T07:03:58.963Z,19.23
2018-04-25T07:06:25.100Z,18.77
2018-04-25T07:08:51.216Z,20.50
2018-04-25T07:11:17.880Z,16.40
2018-04-25T07:13:44.003Z,13.40
2018-04-25T07:16:10.163Z,18.33
2018-04-25T07:18:36.287Z,16.27
2018-04-25T07:21:02.420Z,15.20
2018-04-25T07:23:28.574Z,15.10
2018-04-25T07:25:54.662Z,16.60
2018-04-25T07:28:21.497Z,15.90
2018-04-25T07:30:47.980Z,13.00
2018-04-25T07:33:14.059Z,13.50
2018-04-25T07:35:40.173Z,16.17
2018-04-25T07:38:06.300Z,15.63
2018-04-25T07:40:32.392Z,13.53
2018-04-25T07:42:58.466Z,14.80
2018-04-25T07:45:24.613Z,12.00
2018-04-25T07:47:50.708Z,13.30
2018-04-25T07:50:17.550Z,17.63
2018-04-25T07:52:43.698Z,16.63
2018-04-25T07:55:09.806Z,17.40
2018-04-25T07:57:36.001Z,13.10
2018-04-25T08:00:02.105Z,15.13
2018-04-25T08:02:28.218Z,17.60
2018-04-25T08:04:55.209Z,18.40
2018-04-25T08:07:21.934Z,13.53
2018-04-25T08:09:48.822Z,13.13
2018-04-25T08:12:27.292Z,9.27
2018-04-25T08:15:06.604Z,13.17
2018-04-25T08:17:45.239Z,16.70
2018-04-25T08:20:23.766Z,14.10
2018-04-25T08:22:49.914Z,10.67
2018-04-25T08:25:16.014Z,12.20
2018-04-25T08:27:42.888Z,11.07
2018-04-25T08:30:09.016Z,10.20
2018-04-25T08:32:35.079Z,13.60
2018-04-25T08:35:01.279Z,11.40
2018-04-25T08:37:28.131Z,13.20
2018-04-25T08:39:54.225Z,11.27
2018-04-25T08:42:20.318Z,14.03
2018-04-25T08:44:46.419Z,11.07
2018-04-25T08:47:12.903Z,17.70
2018-04-25T08:49:40.748Z,12.20
2018-04-25T08:52:07.570Z,12.30
2018-04-25T08:54:33.731Z,10.97
2018-04-25T08:57:00.540Z,12.80
2018-04-25T08:59:26.660Z,13.07
2018-04-25T09:01:52.768Z,16.23
2018-04-25T09:04:18.922Z,13.50
2018-04-25T09:06:46.178Z,13.13
2018-04-25T09:09:12.402Z,17.27
2018-04-25T09:11:38.519Z,13.97
2018-04-25T09:14:04.637Z,13.47
2018-04-25T09:16:30.786Z,14.40
2018-04-25T09:18:56.915Z,13.30
2018-04-25T09:21:23.091Z,14.60
2018-04-25T09:23:49.230Z,11.83
2018-04-25T09:26:15.370Z,12.60
2018-04-25T09:28:41.439Z,17.17
2018-04-25T09:31:08.291Z,14.47
2018-04-25T09:33:35.420Z,11.30
2018-04-25T09:36:01.547Z,11.33
2018-04-25T09:38:27.618Z,11.17
2018-04-25T09:40:53.763Z,12.80
2018-04-25T09:43:20.609Z,13.60
2018-04-25T09:45:46.702Z,12.77
2018-04-25T09:48:12.889Z,11.00
2018-04-25T09:50:38.986Z,16.67
2018-04-25T09:53:05.110Z,12.27
2018-04-25T09:55:31.242Z,13.10
2018-04-25T09:57:57.493Z,15.50
2018-04-25T10:00:29.557Z,11.30
2018-04-25T10:02:55.684Z,13.40
2018-04-25T10:05:23.625Z,9.03
2018-04-25T10:07:50.154Z,13.50
2018-04-25T10:10:16.250Z,19.10
2018-04-25T10:12:43.128Z,13.70
2018-04-25T10:15:09.282Z,12.77
2018-04-25T10:17:36.154Z,19.00
2018-04-25T10:20:02.230Z,14.07
2018-04-25T10:22:29.065Z,11.13
2018-04-25T10:24:56.941Z,23.17
2018-04-25T10:27:23.794Z,12.70
2018-04-25T10:29:49.855Z,11.50
2018-04-25T10:32:16.334Z,9.43
2018-04-25T10:34:43.528Z,10.23
2018-04-25T10:37:09.625Z,12.90
2018-04-25T10:39:35.733Z,9.90
2018-04-25T10:42:02.582Z,14.43
2018-04-25T10:44:29.471Z,9.60
2018-04-25T10:46:55.630Z,16.63
2018-04-25T10:49:21.734Z,12.13
2018-04-25T10:51:48.563Z,10.53
2018-04-25T10:54:14.688Z,12.77
2018-04-25T10:56:41.703Z,12.97
2018-04-25T10:59:07.789Z,10.47
2018-04-25T11:01:33.930Z,16.33
2018-04-25T11:04:00.015Z,16.40
2018-04-25T11:06:26.123Z,15.13
2018-04-25T11:08:53.048Z,14.30
2018-04-25T11:11:19.170Z,18.40
2018-04-25T11:13:45.234Z,18.17
2018-04-25T11:16:11.378Z,16.73
2018-04-25T11:18:37.570Z,18.27
2018-04-25T11:21:03.687Z,17.97
2018-04-25T11:23:29.820Z,22.73
2018-04-25T11:25:56.018Z,17.73
2018-04-25T11:28:22.094Z,14.57
2018-04-25T11:30:48.955Z,19.63
2018-04-25T11:33:15.861Z,18.13
2018-04-25T11:35:41.962Z,12.77
2018-04-25T11:38:08.063Z,9.73
2018-04-25T11:40:34.895Z,9.13
2018-04-25T11:43:01.022Z,10.07
2018-04-25T11:45:27.178Z,7.93
2018-04-25T11:47:53.316Z,8.90
2018-04-25T11:50:19.406Z,8.67
2018-04-25T11:52:45.549Z,8.00
2018-04-25T11:55:11.656Z,12.80
2018-04-25T11:57:38.470Z,11.40
2018-04-25T12:00:04.587Z,5.70
2018-04-25T12:02:30.675Z,6.93
2018-04-25T12:04:56.818Z,7.00
2018-04-25T12:07:22.918Z,5.10
2018-04-25T12:09:49.047Z,5.77
2018-04-25T12:12:15.218Z,6.70
2018-04-25T12:14:41.282Z,6.90
2018-04-25T12:17:09.127Z,10.70
2018-04-25T12:19:35.219Z,4.50
2018-04-25T12:22:01.344Z,8.47
2018-04-25T12:24:29.179Z,5.93
2018-04-25T12:26:57.041Z,4.70
2018-04-25T12:29:23.194Z,5.40
2018-04-25T12:31:49.270Z,4.87
2018-04-25T12:34:16.184Z,10.53
2018-04-25T12:36:42.298Z,10.03
2018-04-25T12:39:08.412Z,7.13
2018-04-25T12:41:35.298Z,12.67
2018-04-25T12:44:02.235Z,6.43
2018-04-25T12:46:28.480Z,7.47
2018-04-25T12:48:54.549Z,5.33
2018-04-25T12:51:20.698Z,5.80
2018-04-25T12:53:46.775Z,8.67
2018-04-25T12:56:13.642Z,4.60
2018-04-25T12:58:39.761Z,6.17
2018-04-25T13:01:06.598Z,4.93
2018-04-25T13:03:32.670Z,4.97
2018-04-25T13:05:58.878Z,6.07
2018-04-25T13:08:24.990Z,5.60
2018-04-25T13:10:51.122Z,3.90
2018-04-25T13:13:18.986Z,3.27
2018-04-25T13:15:45.151Z,4.80
2018-04-25T13:18:11.853Z,3.00
2018-04-25T13:20:37.969Z,3.30
2018-04-25T13:23:04.037Z,11.13
2018-04-25T13:25:30.110Z,11.30
2018-04-25T13:27:56.234Z,7.63
2018-04-25T13:30:22.339Z,7.47
2018-04-25T13:32:48.398Z,7.47
2018-04-25T13:35:14.486Z,6.33
2018-04-25T13:37:40.570Z,11.03
2018-04-25T13:40:06.647Z,5.90
2018-04-25T13:42:32.750Z,4.90
2018-04-25T13:44:58.817Z,7.37
2018-04-25T13:47:24.949Z,4.03
2018-04-25T13:49:51.053Z,5.37
2018-04-25T13:52:17.166Z,4.20
2018-04-25T13:54:43.231Z,12.57
2018-04-25T13:57:09.353Z,9.07
2018-04-25T13:59:35.483Z,7.13
2018-04-25T14:02:01.566Z,4.70
2018-04-25T14:04:27.710Z,8.17
2018-04-25T14:06:53.845Z,2.33
2018-04-25T14:09:20.002Z,5.00
2018-04-25T14:11:46.158Z,4.60
2018-04-25T14:14:12.973Z,7.47
2018-04-25T14:16:39.084Z,7.33
2018-04-25T14:19:05.185Z,6.83
2018-04-25T14:21:31.997Z,5.40
2018-04-25T14:23:58.079Z,5.87
2018-04-25T14:26:24.945Z,12.73
2018-04-25T14:28:51.771Z,9.33
2018-04-25T14:31:17.859Z,6.37
2018-04-25T14:33:43.993Z,5.07
2018-04-25T14:36:10.066Z,13.97
2018-04-25T14:38:51.114Z,13.13
2018-04-25T14:41:17.222Z,6.43
2018-04-25T14:43:43.315Z,21.23
2018-04-25T14:46:09.440Z,5.20
2018-04-25T14:48:35.519Z,5.73
2018-04-25T14:51:01.623Z,12.90
2018-04-25T14:53:27.770Z,7.50
2018-04-25T14:55:53.842Z,2.10
2018-04-25T14:58:19.927Z,14.13
2018-04-25T15:00:46.090Z,4.10
2018-04-25T15:03:12.157Z,9.03
2018-04-25T15:05:38.223Z,2.90
2018-04-25T15:08:04.347Z,4.03
2018-04-25T15:10:31.163Z,11.47
2018-04-25T15:12:57.266Z,2.60
2018-04-25T15:15:23.394Z,5.70
2018-04-25T15:17:49.477Z,4.10
2018-04-25T15:20:15.557Z,7.27
2018-04-25T15:22:42.418Z,4.30
2018-04-25T15:25:08.520Z,1.30
2018-04-25T15:27:34.592Z,6.30
2018-04-25T15:30:00.733Z,5.70
2018-04-25T15:32:26.848Z,3.73
2018-04-25T15:34:52.961Z,3.90
2018-04-25T15:37:19.071Z,1.30
2018-04-25T15:39:45.162Z,3.20
2018-04-25T15:42:11.975Z,3.37
2018-04-25T15:44:38.074Z,3.93
2018-04-25T15:47:04.166Z,5.53
2018-04-25T15:49:30.243Z,6.20
2018-04-25T15:51:57.151Z,1.93
2018-04-25T15:54:23.230Z,3.27
2018-04-25T15:56:50.055Z,4.20
2018-04-25T15:59:16.182Z,4.97
2018-04-25T16:01:42.361Z,1.37
2018-04-25T16:04:08.447Z,4.90
2018-04-25T16:06:34.555Z,9.13
2018-04-25T16:09:00.648Z,3.67
2018-04-25T16:11:26.731Z,3.47
2018-04-25T16:13:52.885Z,4.37
2018-04-25T16:16:18.954Z,2.30
2018-04-25T16:18:45.050Z,2.87
2018-04-25T16:21:11.189Z,6.80
2018-04-25T16:23:37.258Z,12.90
2018-04-25T16:26:03.321Z,6.23
2018-04-25T16:28:29.487Z,6.80
2018-04-25T16:30:55.574Z,8.90
2018-04-25T16:33:21.654Z,3.30
2018-04-25T16:35:48.502Z,4.10
2018-04-25T16:38:15.303Z,6.10
2018-04-25T16:40:41.387Z,5.30
2018-04-25T16:43:07.571Z,5.33
2018-04-25T16:45:33.710Z,5.10
2018-04-25T16:47:59.828Z,7.20
2018-04-25T16:50:26.807Z,3.70
2018-04-25T16:52:52.946Z,2.30
2018-04-25T16:55:19.057Z,2.60
2018-04-25T16:57:49.055Z,3.80
2018-04-25T17:00:15.122Z,3.20
2018-04-25T17:02:41.989Z,2.93
2018-04-25T17:05:08.082Z,4.17
2018-04-25T17:07:34.153Z,7.13
2018-04-25T17:10:01.082Z,2.87
2018-04-25T17:12:27.145Z,6.90
2018-04-25T17:14:54.889Z,3.83
2018-04-25T17:17:20.999Z,5.47
2018-04-25T17:19:47.093Z,5.33
2018-04-25T17:22:13.912Z,2.40
2018-04-25T17:24:40.028Z,8.60
2018-04-25T17:27:06.102Z,10.37
2018-04-25T17:29:32.426Z,14.33
2018-04-25T17:31:58.514Z,9.63
2018-04-25T17:34:24.636Z,6.13
2018-04-25T17:36:51.625Z,6.63
2018-04-25T17:39:17.703Z,7.77
2018-04-25T17:41:43.802Z,6.07
2018-04-25T17:44:09.961Z,4.50
2018-04-25T17:46:36.063Z,6.77
2018-04-25T17:49:02.297Z,13.63
2018-04-25T17:51:29.138Z,13.33
2018-04-25T17:53:56.015Z,15.00
2018-04-25T17:56:22.220Z,30.70
2018-04-25T17:58:48.406Z,23.03
2018-04-25T18:01:14.558Z,17.20
2018-04-25T18:03:40.883Z,13.27
2018-04-25T18:06:07.067Z,36.43
2018-04-25T18:08:33.146Z,30.17
2018-04-25T18:10:59.317Z,38.23
2018-04-25T18:13:25.458Z,18.03
2018-04-25T18:15:58.754Z,29.90
2018-04-25T18:18:24.980Z,18.73
2018-04-25T18:20:52.148Z,10.23
2018-04-25T18:23:18.301Z,16.03
2018-04-25T18:25:44.435Z,12.43
2018-04-25T18:28:11.622Z,6.47
2018-04-25T18:30:37.986Z,16.17
2018-04-25T18:33:04.204Z,15.60
2018-04-25T18:35:30.312Z,9.70
2018-04-25T18:37:56.383Z,8.83
2018-04-25T18:40:22.504Z,13.17
2018-04-25T18:42:48.682Z,8.57
2018-04-25T18:45:14.777Z,17.07
2018-04-25T18:47:40.899Z,12.07
2018-04-25T18:50:06.973Z,11.73
2018-04-25T18:52:33.103Z,10.57
2018-04-25T18:54:59.235Z,5.47
2018-04-25T18:57:25.474Z,38.17
2018-04-25T18:59:51.570Z,48.87
2018-04-25T19:02:18.452Z,38.60
2018-04-25T19:04:44.626Z,176.40
2018-04-25T19:07:10.740Z,39.53
2018-04-25T19:09:36.819Z,33.93
2018-04-25T19:12:02.912Z,71.43
2018-04-25T19:14:29.013Z,30.17
2018-04-25T19:16:55.825Z,63.23
2018-04-25T19:19:22.006Z,87.10
2018-04-25T19:21:48.859Z,27.77
2018-04-25T19:24:15.753Z,41.53
2018-04-25T19:26:41.978Z,33.57
2018-04-25T19:29:10.259Z,12.97
2018-04-25T19:31:38.153Z,17.07
2018-04-25T19:34:06.023Z,6.00
2018-04-25T19:36:33.980Z,29.97
2018-04-25T19:39:01.910Z,22.33
2018-04-25T19:41:29.761Z,15.33
2018-04-25T19:43:57.924Z,15.23
2018-04-25T19:46:25.910Z,16.93
2018-04-25T19:48:53.812Z,29.40
2018-04-25T19:51:21.668Z,5.93
2018-04-25T19:53:49.542Z,13.23
2018-04-25T19:56:17.472Z,20.00
2018-04-25T19:58:45.304Z,15.57
2018-04-25T20:01:13.170Z,25.40
2018-04-25T20:03:41.082Z,26.23
2018-04-25T20:06:08.918Z,15.73
2018-04-25T20:08:36.775Z,27.70
2018-04-25T20:11:04.630Z,23.00
2018-04-25T20:13:32.508Z,7.47
2018-04-25T20:15:58.648Z,30.57
2018-04-25T20:18:24.826Z,11.37
2018-04-25T20:20:50.974Z,19.07
2018-04-25T20:23:17.062Z,23.17
2018-04-25T20:25:43.117Z,17.13
2018-04-25T20:28:09.243Z,15.00
2018-04-25T20:30:35.426Z,9.50
2018-04-25T20:33:01.628Z,5.80
2018-04-25T20:35:27.724Z,8.90
2018-04-25T20:37:54.612Z,5.97
2018-04-25T20:40:20.705Z,6.67
2018-04-25T20:42:46.804Z,11.63
2018-04-25T20:45:12.879Z,26.80
2018-04-25T20:47:39.035Z,20.37
2018-04-25T20:50:05.845Z,20.43
2018-04-25T20:52:31.978Z,27.87
2018-04-25T20:54:58.310Z,25.07
2018-04-25T20:57:24.651Z,13.37
2018-04-25T20:59:50.826Z,54.00
2018-04-25T21:02:16.928Z,60.33
2018-04-25T21:04:43.053Z,39.73
2018-04-25T21:07:09.181Z,56.67
2018-04-25T21:09:35.319Z,53.07
2018-04-25T21:12:01.446Z,17.40
2018-04-25T21:14:28.293Z,33.80
2018-04-25T21:16:54.399Z,39.97
2018-04-25T21:19:20.475Z,23.97
2018-04-25T21:21:47.411Z,26.07
2018-04-25T21:24:13.507Z,17.20
2018-04-25T21:26:39.598Z,9.80
2018-04-25T21:29:05.734Z,20.37
2018-04-25T21:31:31.846Z,18.27
2018-04-25T21:33:57.943Z,39.53
2018-04-25T21:36:24.131Z,28.87
2018-04-25T21:38:50.299Z,8.60
2018-04-25T21:41:17.291Z,28.70
2018-04-25T21:43:43.461Z,22.40
2018-04-25T21:46:09.567Z,6.10
2018-04-25T21:48:35.650Z,16.43
2018-04-25T21:51:01.812Z,13.07
2018-04-25T21:53:28.702Z,9.93
2018-04-25T21:55:54.771Z,7.53
2018-04-25T21:58:20.887Z,6.90
2018-04-25T22:00:46.976Z,5.50
2018-04-25T22:03:13.803Z,4.60
2018-04-25T22:05:39.915Z,9.63
2018-04-25T22:08:06.032Z,10.70
2018-04-25T22:10:32.112Z,7.33
2018-04-25T22:12:58.272Z,5.13
2018-04-25T22:15:24.366Z,8.00
2018-04-25T22:17:50.456Z,10.53
2018-04-25T22:20:16.571Z,4.57
2018-04-25T22:22:42.661Z,42.07
2018-04-25T22:25:08.726Z,5.73
2018-04-25T22:27:34.837Z,4.93
2018-04-25T22:30:00.911Z,17.70
2018-04-25T22:32:26.999Z,24.13
2018-04-25T22:34:53.116Z,5.97
2018-04-25T22:37:19.932Z,7.43
2018-04-25T22:39:46.039Z,5.17
2018-04-25T22:42:12.129Z,7.40
2018-04-25T22:44:38.201Z,5.80
2018-04-25T22:47:04.989Z,6.67
2018-04-25T22:49:31.086Z,4.77
2018-04-25T22:51:57.903Z,4.60
2018-04-25T22:54:23.970Z,5.37
2018-04-25T22:56:50.798Z,3.60
2018-04-25T22:59:17.099Z,6.00
2018-04-25T23:01:43.971Z,8.67
2018-04-25T23:04:10.087Z,5.43
2018-04-25T23:06:36.211Z,11.93
2018-04-25T23:09:03.102Z,18.87
2018-04-25T23:11:29.194Z,8.03
2018-04-25T23:13:56.082Z,23.57
2018-04-25T23:16:22.254Z,33.13
2018-04-25T23:18:48.430Z,22.43
2018-04-25T23:21:15.337Z,52.97
2018-04-25T23:23:41.456Z,12.47
2018-04-25T23:26:07.532Z,32.53
2018-04-25T23:28:33.734Z,4.17
2018-04-25T23:30:59.927Z,12.30
2018-04-25T23:33:26.821Z,12.60
2018-04-25T23:35:52.984Z,12.60
2018-04-25T23:38:19.078Z,18.37
2018-04-25T23:40:45.969Z,11.70
2018-04-25T23:43:12.095Z,11.87
2018-04-25T23:45:38.232Z,7.07
2018-04-25T23:48:04.408Z,5.30
2018-04-25T23:50:30.536Z,6.97
2018-04-25T23:52:56.642Z,4.40
2018-04-25T23:55:22.903Z,9.20
2018-04-25T23:57:49.078Z,10.60
